Huvudsida
METAR-TAF:

METAR-TAF

Flygplatser :

Flugplatz Wiener Neustadt/Ost

Wiener Neustadt, Österrike

latitud: 47-50-36N, longitud: 016-15-29E, höjd: 272 m

Aktuellt väderrapport

Denna rapport gjordes för 8 timmar och 53 minuter sedan, klockan 16:00 UTC
Vind 15 kt från nord/nordväst
Temperatur
Tryck

METAR: LOAN 191600Z 33015KT 10KM BKN020SC

Tid: 01:53 (00:53 UTC)

Väderprognos

Denna rapport gjordes för 13 timmar och 28 minuter sedan, klockan 11:25 UTC
Prognos gäller från 19 kl. 12 UTC till 19 kl. 21 UTC
Vind 10 kt från nordväst
Sikt: 8000 m
Spridda moln på en höjd av 1000 ft
Brutna moln på en höjd av 3000 ft
Temporärt
från 19 kl. 12 UTC till 19 kl. 21 UTC
Sikt: 4000 m
Spridda moln på en höjd av 600 ft
Brutna moln på en höjd av 1000 ft
regn, snö

TAF: LOAN 191125Z 1912/1921 31010KT 8000 SCT010 BKN030 TEMPO 1912/1921 4000 RASN SCT006 BKN010

Aktuella väderrapporter och prognoser från 4000 flygplatser (METAR- och TAF-rapporter).

De tillgängliga stationerna syns som gula och röda prickar på kartan.

För musen över prickarna för att se namnen på stationerna.

Klicka sedan för att få väderrapporter och prognoser.

För att ändra kartan: Klicka på de gröna knapparna med ett svart kors på för att zooma in; den gröna knappen med ett streck på för att zooma ut; eller på de gröna pilarna för angränsande kartor.


METAR-TAF: